La rose des vents
Donnes mto: Semaine 03/11/08 - 09/11/08 (S 45)
Date Horaire Temp. E. Hum. E. P.atmo. Pluie Vent 1mn Direction Ensoleilleme Ev.Tr. Solaire P. de rose Temp au vent Rafales
03/11/2008 00:00 12,3 C 94 % 1011,5 hPa 0,0 l/m 2,2 km/h (1 Bft) N 0,00 h 0,025 mm 0 W/m 11,4 C 12,3 C 3,9 km/h (1 Bft)
03/11/2008 01:00 11,9 C 94 % 1011,5 hPa 0,0 l/m 4,3 km/h (1 Bft) N 0,00 h 0,000 mm 0 W/m 11,0 C 11,9 C 6,7 km/h (2 Bft)
03/11/2008 02:00 11,8 C 95 % 1011,5 hPa 0,0 l/m 2,5 km/h (1 Bft) N-NE 0,00 h 0,000 mm 0 W/m 11,1 C 11,8 C 4,1 km/h (1 Bft)
03/11/2008 03:00 12,5 C 95 % 1011,4 hPa 2,0 l/m 3,7 km/h (1 Bft) N 0,00 h 0,000 mm 0 W/m 11,7 C 12,5 C 5,5 km/h (1 Bft)
03/11/2008 04:00 12,3 C 95 % 1011,5 hPa 0,0 l/m 3,1 km/h (1 Bft) N 0,00 h 0,000 mm 0 W/m 11,5 C 12,3 C 5,2 km/h (1 Bft)
03/11/2008 05:00 11,8 C 95 % 1011,6 hPa 0,0 l/m 3,1 km/h (1 Bft) N-NO 0,00 h 0,000 mm 0 W/m 11,0 C 11,8 C 5,3 km/h (1 Bft)
03/11/2008 06:00 11,3 C 95 % 1012,0 hPa 0,0 l/m 2,2 km/h (1 Bft) N-NE 0,00 h 0,000 mm 0 W/m 10,6 C 11,3 C 4,0 km/h (1 Bft)
03/11/2008 07:00 11,3 C 95 % 1012,5 hPa 0,2 l/m 2,9 km/h (1 Bft) N-NE 0,00 h 0,000 mm 8 W/m 10,5 C 11,3 C 5,0 km/h (1 Bft)
03/11/2008 08:00 11,8 C 95 % 1012,9 hPa 0,8 l/m 3,2 km/h (1 Bft) N-NE 0,00 h 0,000 mm 33 W/m 11,1 C 11,8 C 4,9 km/h (1 Bft)
03/11/2008 09:00 13,6 C 94 % 1013,0 hPa 0,0 l/m 4,8 km/h (1 Bft) NO 0,48 h 0,025 mm 208 W/m 12,7 C 13,6 C 7,2 km/h (2 Bft)
03/11/2008 10:00 15,0 C 90 % 1013,2 hPa 0,0 l/m 2,1 km/h (1 Bft) E 0,55 h 0,102 mm 332 W/m 13,3 C 15,0 C 3,7 km/h (1 Bft)
03/11/2008 11:00 15,6 C 85 % 1013,2 hPa 0,0 l/m 5,5 km/h (1 Bft) NE 0,18 h 0,178 mm 199 W/m 13,1 C 15,6 C 8,3 km/h (2 Bft)
03/11/2008 12:00 14,1 C 89 % 1013,3 hPa 3,2 l/m 5,5 km/h (1 Bft) N 0,03 h 0,127 mm 146 W/m 12,4 C 14,1 C 9,6 km/h (2 Bft)
03/11/2008 13:00 13,9 C 94 % 1013,0 hPa 0,0 l/m 3,9 km/h (1 Bft) NE 0,00 h 0,076 mm 127 W/m 13,0 C 13,9 C 6,1 km/h (2 Bft)
03/11/2008 14:00 14,2 C 94 % 1012,7 hPa 0,4 l/m 1,9 km/h (1 Bft) N 0,00 h 0,076 mm 56 W/m 13,2 C 14,2 C 3,4 km/h (1 Bft)
03/11/2008 15:00 14,5 C 94 % 1012,9 hPa 0,8 l/m 1,8 km/h (1 Bft) N 0,77 h 0,025 mm 230 W/m 13,6 C 14,5 C 3,4 km/h (1 Bft)
03/11/2008 16:00 14,6 C 91 % 1012,8 hPa 0,0 l/m 1,9 km/h (1 Bft) N-NE 0,68 h 0,127 mm 88 W/m 13,1 C 14,6 C 3,6 km/h (1 Bft)
03/11/2008 17:00 12,7 C 91 % 1013,2 hPa 0,0 l/m 1,9 km/h (1 Bft) N 0,00 h 0,051 mm 8 W/m 11,3 C 12,7 C 4,1 km/h (1 Bft)
03/11/2008 18:00 11,9 C 92 % 1013,8 hPa 0,0 l/m 1,9 km/h (1 Bft) N-NO 0,00 h 0,000 mm 0 W/m 10,6 C 11,9 C 3,3 km/h (1 Bft)
03/11/2008 19:00 11,9 C 92 % 1014,1 hPa 0,0 l/m 2,6 km/h (1 Bft) N 0,00 h 0,025 mm 0 W/m 10,6 C 11,9 C 5,1 km/h (1 Bft)
03/11/2008 20:00 11,8 C 92 % 1013,7 hPa 0,0 l/m 2,4 km/h (1 Bft) N 0,00 h 0,025 mm 0 W/m 10,5 C 11,8 C 4,7 km/h (1 Bft)
03/11/2008 21:00 11,7 C 92 % 1013,9 hPa 0,2 l/m 2,5 km/h (1 Bft) E 0,00 h 0,025 mm 0 W/m 10,4 C 11,7 C 4,0 km/h (1 Bft)
03/11/2008 22:00 11,7 C 93 % 1014,2 hPa 0,2 l/m 4,8 km/h (1 Bft) N 0,00 h 0,025 mm 0 W/m 10,6 C 11,7 C 7,9 km/h (2 Bft)
03/11/2008 23:00 12,0 C 93 % 1014,2 hPa 0,2 l/m 5,1 km/h (1 Bft) N 0,00 h 0,025 mm 0 W/m 10,9 C 12,0 C 8,3 km/h (2 Bft)
04/11/2008 00:00 12,3 C 93 % 1013,5 hPa 0,0 l/m 5,0 km/h (1 Bft) N 0,00 h 0,025 mm 0 W/m 11,2 C 12,3 C 7,9 km/h (2 Bft)
04/11/2008 01:00 12,1 C 93 % 1013,1 hPa 0,0 l/m 4,5 km/h (1 Bft) NE 0,00 h 0,025 mm 0 W/m 11,0 C 12,1 C 6,6 km/h (2 Bft)
04/11/2008 02:00 11,5 C 93 % 1013,0 hPa 3,2 l/m 5,9 km/h (2 Bft) N-NE 0,00 h 0,025 mm 0 W/m 10,4 C 11,5 C 8,9 km/h (2 Bft)
04/11/2008 03:00 11,3 C 93 % 1012,5 hPa 3,0 l/m 5,0 km/h (1 Bft) N 0,00 h 0,025 mm 0 W/m 10,2 C 11,3 C 8,3 km/h (2 Bft)
04/11/2008 04:00 11,6 C 94 % 1011,5 hPa 0,4 l/m 8,1 km/h (2 Bft) NO 0,00 h 0,025 mm 0 W/m 10,7 C 11,6 C 14,0 km/h (3 Bft)
04/11/2008 05:00 11,9 C 94 % 1010,7 hPa 1,2 l/m 5,1 km/h (1 Bft) O 0,00 h 0,025 mm 0 W/m 10,9 C 11,9 C 7,6 km/h (2 Bft)
04/11/2008 06:00 11,8 C 94 % 1009,7 hPa 0,0 l/m 6,6 km/h (2 Bft) N 0,00 h 0,025 mm 0 W/m 10,9 C 11,8 C 11,0 km/h (2 Bft)
04/11/2008 07:00 12,5 C 93 % 1009,1 hPa 0,4 l/m 10,6 km/h (2 Bft) N-NE 0,00 h 0,000 mm 5 W/m 11,4 C 12,5 C 16,8 km/h (3 Bft)
04/11/2008 08:00 12,8 C 92 % 1009,2 hPa 1,0 l/m 3,7 km/h (1 Bft) E-SE 0,00 h 0,025 mm 9 W/m 11,5 C 12,8 C 5,9 km/h (2 Bft)
04/11/2008 09:00 12,5 C 93 % 1009,4 hPa 2,0 l/m 9,1 km/h (2 Bft) N 0,00 h 0,000 mm 47 W/m 11,3 C 12,5 C 14,2 km/h (3 Bft)
04/11/2008 10:00 13,1 C 93 % 1008,5 hPa 0,4 l/m 17,6 km/h (3 Bft) N-NE 0,33 h 0,051 mm 187 W/m 12,0 C 13,1 C 26,0 km/h (4 Bft)
04/11/2008 11:00 16,4 C 77 % 1007,8 hPa 0,0 l/m 16,0 km/h (3 Bft) N-NE 0,72 h 0,127 mm 401 W/m 12,2 C 16,4 C 25,0 km/h (4 Bft)
04/11/2008 12:00 16,6 C 67 % 1007,5 hPa 0,0 l/m 15,8 km/h (3 Bft) N-NE 0,00 h 0,279 mm 144 W/m 10,6 C 16,6 C 23,6 km/h (4 Bft)
04/11/2008 13:00 16,3 C 71 % 1006,2 hPa 0,0 l/m 14,1 km/h (3 Bft) N-NE 0,00 h 0,152 mm 49 W/m 11,1 C 16,3 C 21,4 km/h (4 Bft)
04/11/2008 14:00 16,4 C 76 % 1005,4 hPa 0,0 l/m 15,4 km/h (3 Bft) NE 0,00 h 0,076 mm 80 W/m 12,2 C 16,4 C 22,3 km/h (4 Bft)
04/11/2008 15:00 16,1 C 77 % 1004,5 hPa 0,0 l/m 7,7 km/h (2 Bft) N-NE 0,00 h 0,102 mm 51 W/m 12,1 C 16,1 C 11,7 km/h (2 Bft)
04/11/2008 16:00 15,7 C 76 % 1003,8 hPa 0,0 l/m 7,4 km/h (2 Bft) NE 0,00 h 0,051 mm 14 W/m 11,5 C 15,7 C 10,6 km/h (2 Bft)
04/11/2008 17:00 15,0 C 80 % 1003,5 hPa 4,4 l/m 10,2 km/h (2 Bft) S-SO 0,00 h 0,051 mm 0 W/m 11,6 C 15,0 C 14,2 km/h (3 Bft)
04/11/2008 18:00 14,0 C 91 % 1004,6 hPa 7,8 l/m 11,2 km/h (2 Bft) E-NE 0,00 h 0,025 mm 0 W/m 12,5 C 14,0 C 18,1 km/h (3 Bft)
04/11/2008 19:00 13,3 C 93 % 1004,6 hPa 4,8 l/m 9,5 km/h (2 Bft) N 0,00 h 0,025 mm 0 W/m 12,2 C 13,3 C 15,0 km/h (3 Bft)
04/11/2008 20:00 12,8 C 94 % 1004,8 hPa 0,8 l/m 5,5 km/h (1 Bft) E-NE 0,00 h 0,025 mm 0 W/m 11,9 C 12,8 C 8,1 km/h (2 Bft)
04/11/2008 21:00 12,5 C 95 % 1005,6 hPa 0,6 l/m 4,5 km/h (1 Bft) NE 0,00 h 0,025 mm 0 W/m 11,7 C 12,5 C 6,3 km/h (2 Bft)
04/11/2008 22:00 12,5 C 95 % 1005,7 hPa 0,6 l/m 11,2 km/h (2 Bft) N-NE 0,00 h 0,000 mm 0 W/m 11,7 C 12,5 C 18,1 km/h (3 Bft)
04/11/2008 23:00 12,4 C 96 % 1004,7 hPa 2,0 l/m 14,0 km/h (3 Bft) N-NE 0,00 h 0,025 mm 0 W/m 11,8 C 12,4 C 21,7 km/h (4 Bft)
05/11/2008 00:00 12,6 C 96 % 1005,1 hPa 1,8 l/m 16,6 km/h (3 Bft) N-NE 0,00 h 0,025 mm 0 W/m 12,0 C 12,6 C 23,9 km/h (4 Bft)
05/11/2008 01:00 13,3 C 97 % 1005,7 hPa 0,2 l/m 14,5 km/h (3 Bft) E-NE 0,00 h 0,025 mm 0 W/m 12,8 C 13,3 C 20,2 km/h (4 Bft)
05/11/2008 02:00 13,3 C 98 % 1005,7 hPa 2,4 l/m 7,6 km/h (2 Bft) NE 0,00 h 0,025 mm 0 W/m 12,9 C 13,3 C 10,9 km/h (2 Bft)
05/11/2008 03:00 12,9 C 100 % 1006,5 hPa 9,4 l/m 5,9 km/h (2 Bft) NE 0,00 h 0,000 mm 0 W/m 12,9 C 12,9 C 8,8 km/h (2 Bft)
05/11/2008 04:00 12,8 C 100 % 1007,6 hPa 1,6 l/m 5,5 km/h (1 Bft) S 0,00 h 0,000 mm 0 W/m 12,7 C 12,8 C 7,6 km/h (2 Bft)
05/11/2008 05:00 12,5 C 100 % 1009,3 hPa 0,2 l/m 4,6 km/h (1 Bft) SO 0,00 h 0,000 mm 0 W/m 12,5 C 12,5 C 6,2 km/h (2 Bft)
05/11/2008 06:00 12,0 C 100 % 1010,7 hPa 0,0 l/m 3,3 km/h (1 Bft) SO 0,00 h 0,000 mm 0 W/m 12,0 C 12,0 C 4,5 km/h (1 Bft)
05/11/2008 07:00 12,0 C 100 % 1012,0 hPa 0,0 l/m 1,4 km/h (1 Bft) SO 0,00 h 0,000 mm 17 W/m 12,0 C 12,0 C 2,2 km/h (1 Bft)
05/11/2008 08:00 12,2 C 100 % 1012,9 hPa 0,4 l/m 2,5 km/h (1 Bft) NO 0,00 h 0,000 mm 35 W/m 12,2 C 12,2 C 3,7 km/h (1 Bft)
05/11/2008 09:00 12,6 C 100 % 1013,3 hPa 0,2 l/m 1,7 km/h (1 Bft) N 0,05 h 0,000 mm 114 W/m 12,6 C 12,6 C 3,2 km/h (1 Bft)
05/11/2008 10:00 13,2 C 100 % 1013,2 hPa 0,0 l/m 2,6 km/h (1 Bft) N-NE 0,00 h 0,000 mm 142 W/m 13,2 C 13,2 C 4,6 km/h (1 Bft)
05/11/2008 11:00 12,6 C 100 % 1013,8 hPa 0,8 l/m 5,3 km/h (1 Bft) E-NE 0,00 h 0,000 mm 73 W/m 12,6 C 12,6 C 7,5 km/h (2 Bft)
05/11/2008 12:00 12,0 C 100 % 1014,2 hPa 3,2 l/m 4,6 km/h (1 Bft) E-NE 0,00 h 0,000 mm 26 W/m 12,0 C 12,0 C 6,6 km/h (2 Bft)
05/11/2008 13:00 11,6 C 100 % 1014,2 hPa 3,4 l/m 0,3 km/h (0 Bft) NE 0,00 h 0,000 mm 34 W/m 11,6 C 11,6 C 1,2 km/h (1 Bft)
05/11/2008 14:00 11,4 C 100 % 1014,0 hPa 1,2 l/m 4,9 km/h (1 Bft) N 0,00 h 0,025 mm 49 W/m 11,4 C 11,4 C 8,0 km/h (2 Bft)
05/11/2008 15:00 10,7 C 100 % 1013,7 hPa 0,0 l/m 5,4 km/h (1 Bft) N 0,00 h 0,000 mm 63 W/m 10,7 C 10,7 C 10,0 km/h (2 Bft)
05/11/2008 16:00 10,6 C 100 % 1013,8 hPa 0,0 l/m 4,5 km/h (1 Bft) N 0,00 h 0,000 mm 29 W/m 10,6 C 10,6 C 8,2 km/h (2 Bft)
05/11/2008 17:00 10,7 C 100 % 1013,8 hPa 0,0 l/m 3,5 km/h (1 Bft) N 0,03 h 0,000 mm 9 W/m 10,7 C 10,7 C 6,2 km/h (2 Bft)
05/11/2008 18:00 10,8 C 100 % 1014,1 hPa 0,2 l/m 3,0 km/h (1 Bft) N 0,00 h 0,000 mm 0 W/m 10,8 C 10,8 C 5,0 km/h (1 Bft)
05/11/2008 19:00 10,7 C 100 % 1014,4 hPa 0,0 l/m 2,8 km/h (1 Bft) N 0,00 h 0,000 mm 0 W/m 10,7 C 10,7 C 5,2 km/h (1 Bft)
05/11/2008 20:00 10,3 C 100 % 1014,3 hPa 0,0 l/m 2,2 km/h (1 Bft) N 0,00 h 0,000 mm 0 W/m 10,3 C 10,3 C 4,2 km/h (1 Bft)
05/11/2008 21:00 10,6 C 100 % 1014,4 hPa 0,0 l/m 4,0 km/h (1 Bft) N 0,00 h 0,000 mm 0 W/m 10,6 C 10,6 C 6,6 km/h (2 Bft)
05/11/2008 22:00 10,8 C 100 % 1014,5 hPa 0,0 l/m 5,0 km/h (1 Bft) N 0,00 h 0,000 mm 0 W/m 10,8 C 10,8 C 8,5 km/h (2 Bft)
05/11/2008 23:00 11,1 C 100 % 1014,0 hPa 0,0 l/m 4,6 km/h (1 Bft) N 0,00 h 0,000 mm 0 W/m 11,1 C 11,1 C 7,9 km/h (2 Bft)
06/11/2008 00:00 11,2 C 100 % 1013,7 hPa 0,4 l/m 6,9 km/h (2 Bft) N 0,00 h 0,000 mm 0 W/m 11,2 C 11,2 C 11,2 km/h (2 Bft)
06/11/2008 01:00 11,0 C 100 % 1013,8 hPa 19,6 l/m 8,9 km/h (2 Bft) SO 0,00 h 0,000 mm 0 W/m 10,9 C 11,0 C 13,1 km/h (3 Bft)
06/11/2008 02:00 10,5 C 100 % 1013,4 hPa 1,0 l/m 5,3 km/h (1 Bft) NO 0,00 h 0,025 mm 0 W/m 10,4 C 10,5 C 8,2 km/h (2 Bft)
06/11/2008 03:00 10,8 C 100 % 1013,8 hPa 7,4 l/m 8,0 km/h (2 Bft) SO 0,00 h 0,000 mm 0 W/m 10,7 C 10,8 C 11,3 km/h (2 Bft)
06/11/2008 04:00 10,5 C 99 % 1013,4 hPa 1,6 l/m 9,3 km/h (2 Bft) NO 0,00 h 0,025 mm 0 W/m 10,4 C 10,5 C 14,5 km/h (3 Bft)
06/11/2008 05:00 10,3 C 100 % 1013,4 hPa 0,4 l/m 3,4 km/h (1 Bft) N 0,00 h 0,025 mm 0 W/m 10,3 C 10,3 C 6,2 km/h (2 Bft)
06/11/2008 06:00 9,9 C 100 % 1013,1 hPa 1,2 l/m 5,5 km/h (1 Bft) NO 0,00 h 0,000 mm 0 W/m 9,9 C 9,4 C 8,6 km/h (2 Bft)
06/11/2008 07:00 9,9 C 85 % 1013,0 hPa 0,0 l/m 3,3 km/h (1 Bft) N-NO 0,48 h 0,000 mm 34 W/m -0,6 C 9,7 C 5,3 km/h (1 Bft)
06/11/2008 08:00 10,8 C 0 % 1013,5 hPa 0,0 l/m 2,3 km/h (1 Bft) N-NE 0,50 h 0,000 mm 134 W/m -60,0 C 10,8 C 3,7 km/h (1 Bft)
06/11/2008 09:00 12,3 C 0 % 1013,6 hPa 0,2 l/m 1,8 km/h (1 Bft) E-NE 1,00 h 0,000 mm 253 W/m -60,0 C 12,3 C 3,4 km/h (1 Bft)
06/11/2008 10:00 13,2 C 0 % 1013,5 hPa 0,0 l/m 6,0 km/h (2 Bft) NE 0,23 h 0,000 mm 197 W/m -60,0 C 13,2 C 8,5 km/h (2 Bft)
06/11/2008 11:00 15,7 C 0 % 1013,5 hPa 0,0 l/m 7,4 km/h (2 Bft) NE 0,95 h 0,000 mm 560 W/m -60,0 C 15,7 C 10,7 km/h (2 Bft)
06/11/2008 12:00 16,1 C 0 % 1013,1 hPa 0,0 l/m 7,0 km/h (2 Bft) E-NE 0,58 h 0,000 mm 358 W/m -60,0 C 16,1 C 10,0 km/h (2 Bft)
06/11/2008 13:00 15,5 C 0 % 1012,8 hPa 0,0 l/m 2,5 km/h (1 Bft) S-SE 0,38 h 0,000 mm 256 W/m -60,0 C 15,5 C 4,6 km/h (1 Bft)
06/11/2008 14:00 15,4 C 0 % 1012,5 hPa 0,0 l/m 2,4 km/h (1 Bft) S-SE 0,50 h 0,000 mm 226 W/m -60,0 C 15,4 C 4,4 km/h (1 Bft)
06/11/2008 15:00 15,1 C 0 % 1012,4 hPa 0,0 l/m 5,8 km/h (2 Bft) S-SE 0,47 h 0,000 mm 136 W/m -60,0 C 15,1 C 8,8 km/h (2 Bft)
06/11/2008 16:00 13,1 C 0 % 1012,3 hPa 1,2 l/m 5,0 km/h (1 Bft) S-SE 0,00 h 0,000 mm 22 W/m -60,0 C 13,1 C 6,8 km/h (2 Bft)
06/11/2008 17:00 11,6 C 76 % 1012,8 hPa 6,8 l/m 2,3 km/h (1 Bft) E 0,00 h 0,000 mm 5 W/m -0,6 C 11,6 C 3,9 km/h (1 Bft)
06/11/2008 18:00 11,3 C 91 % 1013,4 hPa 1,2 l/m 1,3 km/h (1 Bft) N 0,00 h 0,000 mm 0 W/m 9,9 C 11,3 C 2,5 km/h (1 Bft)
06/11/2008 19:00 11,1 C 93 % 1013,4 hPa 0,6 l/m 4,2 km/h (1 Bft) N 0,00 h 0,000 mm 0 W/m 10,0 C 11,1 C 7,3 km/h (2 Bft)
06/11/2008 20:00 10,0 C 93 % 1013,2 hPa 0,0 l/m 5,0 km/h (1 Bft) N 0,00 h 0,025 mm 0 W/m 9,0 C 9,8 C 8,2 km/h (2 Bft)
06/11/2008 21:00 10,0 C 93 % 1013,6 hPa 0,0 l/m 2,3 km/h (1 Bft) NE 0,00 h 0,025 mm 0 W/m 8,9 C 9,9 C 3,5 km/h (1 Bft)
06/11/2008 22:00 9,9 C 94 % 1013,5 hPa 0,0 l/m 2,2 km/h (1 Bft) NE 0,00 h 0,000 mm 0 W/m 9,0 C 9,9 C 3,8 km/h (1 Bft)
06/11/2008 23:00 9,8 C 94 % 1013,1 hPa 0,0 l/m 1,4 km/h (1 Bft) E-NE 0,00 h 0,000 mm 0 W/m 8,9 C 9,8 C 2,6 km/h (1 Bft)
07/11/2008 00:00 9,2 C 94 % 1012,8 hPa 0,0 l/m 1,9 km/h (1 Bft) N 0,00 h 0,000 mm 0 W/m 8,3 C 9,2 C 3,4 km/h (1 Bft)
07/11/2008 01:00 9,6 C 94 % 1012,7 hPa 0,0 l/m 2,3 km/h (1 Bft) N 0,00 h 0,000 mm 0 W/m 8,6 C 9,5 C 4,2 km/h (1 Bft)
07/11/2008 02:00 9,7 C 94 % 1012,7 hPa 0,0 l/m 3,4 km/h (1 Bft) N-NO 0,00 h 0,000 mm 0 W/m 8,8 C 9,6 C 4,9 km/h (1 Bft)
07/11/2008 03:00 10,1 C 93 % 1012,4 hPa 0,4 l/m 2,9 km/h (1 Bft) N-NO 0,00 h 0,000 mm 0 W/m 9,0 C 10,1 C 4,8 km/h (1 Bft)
07/11/2008 04:00 10,0 C 92 % 1012,4 hPa 1,4 l/m 2,4 km/h (1 Bft) O-NO 0,00 h 0,000 mm 0 W/m 8,7 C 9,8 C 3,6 km/h (1 Bft)
07/11/2008 05:00 9,8 C 93 % 1012,9 hPa 3,4 l/m 7,2 km/h (2 Bft) S-SO 0,00 h 0,000 mm 0 W/m 8,7 C 9,0 C 9,7 km/h (2 Bft)
07/11/2008 06:00 9,8 C 94 % 1013,1 hPa 0,0 l/m 8,7 km/h (2 Bft) O 0,00 h 0,025 mm 0 W/m 8,9 C 8,7 C 12,2 km/h (2 Bft)
07/11/2008 07:00 9,6 C 94 % 1013,5 hPa 0,2 l/m 4,9 km/h (1 Bft) O 0,00 h 0,000 mm 6 W/m 8,7 C 9,2 C 6,8 km/h (2 Bft)
07/11/2008 08:00 9,7 C 95 % 1013,9 hPa 0,0 l/m 0,9 km/h (0 Bft) NO 0,00 h 0,000 mm 29 W/m 9,0 C 9,7 C 1,5 km/h (1 Bft)
07/11/2008 09:00 10,5 C 95 % 1014,1 hPa 0,2 l/m 2,5 km/h (1 Bft) NO 0,00 h 0,025 mm 108 W/m 9,7 C 10,5 C 4,2 km/h (1 Bft)
07/11/2008 10:00 12,3 C 95 % 1014,3 hPa 0,0 l/m 2,5 km/h (1 Bft) O-NO 0,37 h 0,051 mm 221 W/m 11,6 C 12,3 C 4,2 km/h (1 Bft)
07/11/2008 11:00 13,6 C 98 % 1014,6 hPa 0,0 l/m 0,5 km/h (0 Bft) E-NE 0,40 h 0,102 mm 260 W/m 13,3 C 13,6 C 1,3 km/h (1 Bft)
07/11/2008 12:00 15,6 C 100 % 1014,4 hPa 0,0 l/m 2,5 km/h (1 Bft) E 1,00 h 0,127 mm 434 W/m 15,6 C 15,6 C 4,2 km/h (1 Bft)
07/11/2008 13:00 16,3 C 92 % 1014,3 hPa 0,0 l/m 4,0 km/h (1 Bft) E-NE 0,77 h 0,000 mm 399 W/m 14,8 C 16,3 C 6,4 km/h (2 Bft)
07/11/2008 14:00 15,0 C 76 % 1014,0 hPa 0,0 l/m 1,4 km/h (1 Bft) E 0,18 h 0,229 mm 168 W/m 10,8 C 15,0 C 3,0 km/h (1 Bft)
07/11/2008 15:00 15,5 C 75 % 1014,2 hPa 0,0 l/m 1,1 km/h (1 Bft) S-SE 0,82 h 0,102 mm 218 W/m 11,1 C 15,5 C 2,6 km/h (1 Bft)
07/11/2008 16:00 14,6 C 76 % 1014,5 hPa 0,0 l/m 5,1 km/h (1 Bft) O-SO 0,73 h 0,127 mm 80 W/m 10,3 C 14,6 C 7,1 km/h (2 Bft)
07/11/2008 17:00 12,5 C 79 % 1014,9 hPa 0,0 l/m 4,6 km/h (1 Bft) O-SO 0,00 h 0,051 mm 7 W/m 9,0 C 12,5 C 6,3 km/h (2 Bft)
07/11/2008 18:00 11,5 C 83 % 1015,6 hPa 0,0 l/m 1,3 km/h (1 Bft) E 0,00 h 0,025 mm 0 W/m 8,8 C 11,5 C 2,2 km/h (1 Bft)
07/11/2008 19:00 10,7 C 86 % 1016,4 hPa 0,0 l/m 1,8 km/h (1 Bft) N-NO 0,00 h 0,025 mm 0 W/m 8,5 C 10,7 C 3,0 km/h (1 Bft)
07/11/2008 20:00 10,5 C 88 % 1016,8 hPa 0,0 l/m 4,0 km/h (1 Bft) O-NO 0,00 h 0,025 mm 0 W/m 8,6 C 10,5 C 6,2 km/h (2 Bft)
07/11/2008 21:00 10,4 C 89 % 1017,2 hPa 0,0 l/m 7,4 km/h (2 Bft) O-NO 0,00 h 0,025 mm 0 W/m 8,7 C 10,4 C 10,2 km/h (2 Bft)
07/11/2008 22:00 10,4 C 88 % 1017,2 hPa 0,0 l/m 6,2 km/h (2 Bft) O-NO 0,00 h 0,025 mm 0 W/m 8,4 C 10,4 C 8,7 km/h (2 Bft)
07/11/2008 23:00 10,1 C 86 % 1017,1 hPa 0,0 l/m 4,0 km/h (1 Bft) O 0,00 h 0,025 mm 0 W/m 7,9 C 10,0 C 5,6 km/h (1 Bft)
08/11/2008 00:00 10,0 C 85 % 1017,1 hPa 0,0 l/m 2,5 km/h (1 Bft) O 0,00 h 0,025 mm 0 W/m 7,7 C 10,0 C 3,7 km/h (1 Bft)
08/11/2008 01:00 9,7 C 85 % 1017,1 hPa 0,0 l/m 5,2 km/h (1 Bft) O 0,00 h 0,025 mm 0 W/m 7,3 C 9,3 C 6,6 km/h (2 Bft)
08/11/2008 02:00 9,7 C 83 % 1017,1 hPa 0,0 l/m 6,3 km/h (2 Bft) O 0,00 h 0,025 mm 0 W/m 7,1 C 9,1 C 7,6 km/h (2 Bft)
08/11/2008 03:00 9,7 C 82 % 1017,2 hPa 0,0 l/m 5,4 km/h (1 Bft) O 0,00 h 0,025 mm 0 W/m 6,8 C 9,3 C 6,9 km/h (2 Bft)
08/11/2008 04:00 9,5 C 82 % 1017,3 hPa 0,0 l/m 4,8 km/h (1 Bft) O-NO 0,00 h 0,025 mm 0 W/m 6,6 C 9,2 C 6,7 km/h (2 Bft)
08/11/2008 05:00 9,4 C 82 % 1017,8 hPa 0,0 l/m 4,7 km/h (1 Bft) O-NO 0,00 h 0,025 mm 0 W/m 6,5 C 9,1 C 6,6 km/h (2 Bft)
08/11/2008 06:00 9,1 C 81 % 1018,2 hPa 0,0 l/m 3,4 km/h (1 Bft) NO 0,00 h 0,025 mm 0 W/m 6,0 C 9,0 C 4,6 km/h (1 Bft)
08/11/2008 07:00 8,9 C 83 % 1018,6 hPa 0,0 l/m 3,8 km/h (1 Bft) O-NO 0,55 h 0,000 mm 32 W/m 6,1 C 8,7 C 5,0 km/h (1 Bft)
08/11/2008 08:00 11,0 C 80 % 1019,6 hPa 0,0 l/m 2,2 km/h (1 Bft) O-NO 1,00 h 0,025 mm 146 W/m 7,6 C 10,9 C 3,7 km/h (1 Bft)
08/11/2008 09:00 13,4 C 72 % 1020,0 hPa 0,0 l/m 0,7 km/h (0 Bft) E-NE 1,00 h 0,076 mm 283 W/m 8,5 C 13,4 C 1,1 km/h (1 Bft)
08/11/2008 10:00 14,9 C 68 % 1020,3 hPa 0,0 l/m 2,5 km/h (1 Bft) E-NE 1,00 h 0,152 mm 393 W/m 9,1 C 14,9 C 4,3 km/h (1 Bft)
08/11/2008 11:00 15,9 C 67 % 1020,5 hPa 0,0 l/m 4,0 km/h (1 Bft) S-SE 1,00 h 0,229 mm 460 W/m 9,7 C 15,9 C 6,7 km/h (2 Bft)
08/11/2008 12:00 16,6 C 68 % 1019,9 hPa 0,0 l/m 5,0 km/h (1 Bft) E 1,00 h 0,254 mm 475 W/m 10,7 C 16,6 C 7,9 km/h (2 Bft)
08/11/2008 13:00 16,5 C 70 % 1019,7 hPa 0,0 l/m 6,5 km/h (2 Bft) S-SE 1,00 h 0,279 mm 419 W/m 11,0 C 16,5 C 9,6 km/h (2 Bft)
08/11/2008 14:00 16,1 C 71 % 1019,9 hPa 0,0 l/m 7,9 km/h (2 Bft) S-SE 1,00 h 0,254 mm 293 W/m 10,7 C 16,1 C 11,5 km/h (2 Bft)
08/11/2008 15:00 15,5 C 75 % 1020,3 hPa 0,0 l/m 7,9 km/h (2 Bft) S-SE 0,98 h 0,203 mm 177 W/m 11,0 C 15,5 C 11,0 km/h (2 Bft)
08/11/2008 16:00 14,5 C 80 % 1020,8 hPa 0,0 l/m 3,4 km/h (1 Bft) S 0,08 h 0,127 mm 51 W/m 11,0 C 14,5 C 5,0 km/h (1 Bft)
08/11/2008 17:00 13,2 C 83 % 1021,4 hPa 0,0 l/m 0,7 km/h (0 Bft) S 0,05 h 0,051 mm 8 W/m 10,3 C 13,2 C 1,0 km/h (0 Bft)
08/11/2008 18:00 12,4 C 85 % 1022,0 hPa 0,0 l/m 1,8 km/h (1 Bft) S 0,00 h 0,000 mm 0 W/m 10,1 C 12,4 C 3,2 km/h (1 Bft)
08/11/2008 19:00 11,7 C 88 % 1022,6 hPa 0,0 l/m 3,6 km/h (1 Bft) O-NO 0,00 h 0,025 mm 0 W/m 9,7 C 11,7 C 5,4 km/h (1 Bft)
08/11/2008 20:00 11,1 C 89 % 1023,1 hPa 0,0 l/m 3,5 km/h (1 Bft) NO 0,00 h 0,025 mm 0 W/m 9,3 C 11,1 C 5,3 km/h (1 Bft)
08/11/2008 21:00 10,9 C 90 % 1023,5 hPa 0,0 l/m 5,2 km/h (1 Bft) NO 0,00 h 0,025 mm 0 W/m 9,3 C 10,9 C 7,6 km/h (2 Bft)
08/11/2008 22:00 10,4 C 90 % 1024,0 hPa 0,0 l/m 3,9 km/h (1 Bft) O-NO 0,00 h 0,025 mm 0 W/m 8,8 C 10,4 C 6,4 km/h (2 Bft)
08/11/2008 23:00 10,1 C 89 % 1024,3 hPa 0,0 l/m 4,5 km/h (1 Bft) O-NO 0,00 h 0,025 mm 0 W/m 8,4 C 10,0 C 7,0 km/h (2 Bft)
09/11/2008 00:00 10,0 C 89 % 1024,5 hPa 0,0 l/m 8,1 km/h (2 Bft) O 0,00 h 0,025 mm 0 W/m 8,2 C 9,3 C 11,0 km/h (2 Bft)
09/11/2008 01:00 9,9 C 84 % 1024,5 hPa 0,0 l/m 6,8 km/h (2 Bft) O 0,00 h 0,025 mm 0 W/m 7,2 C 9,1 C 10,0 km/h (2 Bft)
09/11/2008 02:00 9,5 C 82 % 1025,0 hPa 0,0 l/m 4,3 km/h (1 Bft) O-NO 0,00 h 0,025 mm 0 W/m 6,6 C 9,3 C 6,9 km/h (2 Bft)
09/11/2008 03:00 9,5 C 83 % 1025,2 hPa 0,0 l/m 4,2 km/h (1 Bft) O-NO 0,00 h 0,025 mm 0 W/m 6,7 C 9,3 C 6,1 km/h (2 Bft)
09/11/2008 04:00 9,6 C 82 % 1025,2 hPa 0,0 l/m 4,5 km/h (1 Bft) O-NO 0,00 h 0,025 mm 0 W/m 6,7 C 9,4 C 6,1 km/h (2 Bft)
09/11/2008 05:00 9,5 C 83 % 1025,6 hPa 0,0 l/m 4,3 km/h (1 Bft) O-NO 0,00 h 0,025 mm 0 W/m 6,7 C 9,3 C 6,0 km/h (2 Bft)
09/11/2008 06:00 9,3 C 82 % 1025,8 hPa 0,0 l/m 3,7 km/h (1 Bft) O-NO 0,00 h 0,025 mm 0 W/m 6,5 C 9,2 C 5,0 km/h (1 Bft)
09/11/2008 07:00 9,5 C 84 % 1026,2 hPa 0,0 l/m 3,8 km/h (1 Bft) O-NO 0,52 h 0,000 mm 34 W/m 6,9 C 9,4 C 5,5 km/h (1 Bft)
09/11/2008 08:00 11,7 C 82 % 1027,0 hPa 0,2 l/m 0,7 km/h (0 Bft) O-NO 1,00 h 0,025 mm 149 W/m 8,6 C 11,7 C 1,8 km/h (1 Bft)
09/11/2008 09:00 13,5 C 70 % 1027,4 hPa 0,0 l/m 0,2 km/h (0 Bft) NO 1,00 h 0,076 mm 269 W/m 8,1 C 13,5 C 0,7 km/h (0 Bft)
09/11/2008 10:00 15,2 C 65 % 1027,7 hPa 0,0 l/m 2,0 km/h (1 Bft) E-SE 1,00 h 0,152 mm 387 W/m 8,8 C 15,2 C 3,8 km/h (1 Bft)
09/11/2008 11:00 16,3 C 62 % 1027,7 hPa 0,0 l/m 2,7 km/h (1 Bft) E 1,00 h 0,203 mm 447 W/m 9,0 C 16,3 C 4,9 km/h (1 Bft)
09/11/2008 12:00 16,6 C 64 % 1027,3 hPa 0,0 l/m 4,3 km/h (1 Bft) E 1,00 h 0,254 mm 438 W/m 9,8 C 16,6 C 7,1 km/h (2 Bft)
09/11/2008 13:00 16,6 C 69 % 1027,0 hPa 0,0 l/m 5,6 km/h (1 Bft) S-SE 1,00 h 0,254 mm 413 W/m 10,9 C 16,6 C 8,8 km/h (2 Bft)
09/11/2008 14:00 16,2 C 72 % 1026,9 hPa 0,0 l/m 6,1 km/h (2 Bft) S-SE 1,00 h 0,254 mm 334 W/m 11,2 C 16,2 C 9,1 km/h (2 Bft)
09/11/2008 15:00 15,9 C 76 % 1027,1 hPa 0,0 l/m 6,5 km/h (2 Bft) S-SE 1,00 h 0,203 mm 244 W/m 11,6 C 15,9 C 9,2 km/h (2 Bft)
09/11/2008 16:00 15,1 C 78 % 1027,2 hPa 0,0 l/m 2,9 km/h (1 Bft) S 0,47 h 0,152 mm 69 W/m 11,2 C 15,1 C 4,4 km/h (1 Bft)
09/11/2008 17:00 13,6 C 81 % 1027,3 hPa 0,0 l/m 1,5 km/h (1 Bft) O-SO 0,05 h 0,051 mm 7 W/m 10,3 C 13,6 C 2,2 km/h (1 Bft)
09/11/2008 18:00 12,8 C 83 % 1027,7 hPa 0,0 l/m 1,5 km/h (1 Bft) O-SO 0,00 h 0,000 mm 0 W/m 9,9 C 12,8 C 2,4 km/h (1 Bft)
09/11/2008 19:00 12,1 C 86 % 1028,0 hPa 0,0 l/m 3,2 km/h (1 Bft) O 0,00 h 0,025 mm 0 W/m 9,8 C 12,1 C 4,6 km/h (1 Bft)
09/11/2008 20:00 11,3 C 88 % 1028,2 hPa 0,0 l/m 4,1 km/h (1 Bft) O-NO 0,00 h 0,025 mm 0 W/m 9,4 C 11,3 C 6,1 km/h (2 Bft)
09/11/2008 21:00 11,1 C 89 % 1028,3 hPa 0,0 l/m 4,8 km/h (1 Bft) O-NO 0,00 h 0,025 mm 0 W/m 9,4 C 11,1 C 7,0 km/h (2 Bft)
09/11/2008 22:00 11,0 C 89 % 1028,2 hPa 0,0 l/m 5,1 km/h (1 Bft) NO 0,00 h 0,025 mm 0 W/m 9,2 C 11,0 C 7,3 km/h (2 Bft)
09/11/2008 23:00 10,9 C 89 % 1027,9 hPa 0,0 l/m 5,0 km/h (1 Bft) O-NO 0,00 h 0,025 mm 0 W/m 9,1 C 10,9 C 7,3 km/h (2 Bft)
Min-Date _ 08/11/08 06/11/08 04/11/08 - 03/11/08 - - - - 06/11/08 07/11/08 03/11/08
_ Min-Heure 06:54 07:51 17:00 - 00:12 - - - - 07:51 05:30 00:13
Minimum _ 8,7 C 0 % 1003,0 hPa - 0,0 km/h (0 Bft) - - - - -60,0 C 7,9 C 0,0 km/h (0 Bft)
Max-Date _ 04/11/08 04/11/08 09/11/08 06/11/08 05/11/08 - 03/11/08 04/11/08 07/11/08 07/11/08 04/11/08 05/11/08
_ Max-Heure 11:37 23:22 20:30 01:24 00:51 - 09:01 12:00 12:55 13:07 11:37 00:39
Maximum _ 17,3 C 100 % 1028,3 hPa 19,6 l/m 33,8 km/h
N-NE (5 Bft)
- 0,02 h 0,279 mm 721 W/m 17,1 C 17,3 C 45,1 km/h
N-NE (6 Bft)
Moyenne _ 12,3 C 84 % 1015,3 hPa #113,0 l/m 4,8 km/h (1 Bft) N #30:54 h #7,239 mm 167 W/m 6,4 C 12,2 C 7,4 km/h (2 Bft)
Roquefort les pins